.
WxDataArchive / Data Records for 2015-08-06
2015-08-05 August 2015 2015-08-07

Data Records for Thursday, 06 August 2015

Time	Temp	Chill	HIndex	Humid	Dewpt	 Wind 	HiWind	WindDir	Rain 	Barom
-----	----	-----	------	-----	-----	------	------	-------	-----	-----
00:00	66.1	66.1	66.1	83	60.8	0	0	---	0.00	29.962 
00:05	66.0	66.0	66.0	82	60.3	0	0	---	0.00	29.962 
00:10	65.8	65.8	65.8	82	60.1	0	0	---	0.00	29.962 
00:15	65.5	65.5	65.5	82	59.9	0	0	---	0.00	29.955 
00:20	65.5	65.5	65.5	82	59.9	0	0	---	0.00	29.955 
00:25	65.3	65.3	65.3	83	60.0	0	0	---	0.00	29.955 
00:30	65.2	65.2	65.2	83	59.9	0	0	---	0.00	29.952 
00:35	65.2	65.2	65.2	83	59.9	0	0	---	0.00	29.952 
00:40	65.2	65.2	65.2	83	59.9	0	0	---	0.00	29.952 
00:45	65.3	65.3	65.3	82	59.7	0	0	---	0.00	29.954 
00:50	65.3	65.3	65.3	82	59.7	0	0	---	0.00	29.954 
00:55	65.3	65.3	65.3	82	59.7	0	0	---	0.00	29.954 
01:00	65.5	65.5	65.5	82	59.9	0	0	---	0.00	29.951 
01:05	65.5	65.5	65.5	82	59.9	0	1	90	0.00	29.951 
01:10	65.6	65.6	65.6	82	59.9	0	1	90	0.00	29.951 
01:15	65.6	65.6	65.6	82	59.9	0	1	90	0.00	29.946 
01:20	65.6	65.6	65.6	82	59.9	0	1	90	0.00	29.946 
01:25	65.6	65.6	65.6	82	59.9	0	1	90	0.00	29.946 
01:30	65.8	65.8	65.8	82	60.1	0	1	90	0.00	29.942 
01:35	65.8	65.8	65.8	82	60.1	0	1	90	0.00	29.942 
01:40	65.6	65.6	65.6	81	59.6	0	1	90	0.00	29.942 
01:45	65.6	65.6	65.6	81	59.6	0	1	90	0.00	29.937 
01:50	65.6	65.6	65.6	81	59.6	0	1	90	0.00	29.937 
01:55	65.5	65.5	65.5	82	59.9	0	1	90	0.00	29.937 
02:00	65.3	65.3	65.3	82	59.7	0	0	---	0.00	29.934 
02:05	65.3	65.3	65.3	82	59.7	0	1	90	0.00	29.934 
02:10	65.2	65.2	65.2	82	59.6	0	0	---	0.00	29.934 
02:15	65.0	65.0	65.0	82	59.4	0	0	---	0.00	29.929 
02:20	65.0	65.0	65.0	83	59.7	0	0	---	0.00	29.929 
02:25	64.8	64.8	64.8	83	59.5	0	1	90	0.00	29.929 
02:30	64.8	64.8	64.8	83	59.5	0	0	---	0.00	29.932 
02:35	64.8	64.8	64.8	83	59.5	0	0	---	0.00	29.932 
02:40	64.8	64.8	64.8	84	59.8	0	1	90	0.00	29.932 
02:45	64.8	64.8	64.8	84	59.8	0	0	---	0.00	29.930 
02:50	64.8	64.8	64.8	84	59.8	0	1	90	0.00	29.930 
02:55	64.8	64.8	64.8	84	59.8	0	1	90	0.00	29.930 
03:00	64.7	64.7	64.7	84	59.7	0	1	90	0.00	29.931 
03:05	64.7	64.7	64.7	84	59.7	0	1	90	0.00	29.931 
03:10	64.7	64.7	64.7	84	59.7	0	1	90	0.00	29.931 
03:15	64.7	64.7	64.7	84	59.7	0	2	90	0.00	29.925 
03:20	64.7	64.7	64.7	84	59.7	0	1	90	0.00	29.925 
03:25	64.5	64.5	64.5	84	59.6	0	2	90	0.00	29.925 
03:30	64.5	64.5	64.5	84	59.6	0	5	90	0.00	29.926 
03:35	64.5	64.5	64.5	84	59.6	0	2	90	0.00	29.926 
03:40	64.5	64.5	64.5	84	59.6	0	2	90	0.00	29.926 
03:45	64.3	64.3	64.3	84	59.4	1	3	112	0.00	29.930 
03:50	64.3	64.3	64.3	84	59.4	1	3	112	0.00	29.930 
03:55	64.2	64.2	64.2	84	59.3	1	4	112	0.00	29.930 
04:00	64.2	64.2	64.2	84	59.3	0	2	90	0.00	29.937 
04:05	64.2	64.2	64.2	84	59.3	1	4	90	0.00	29.937 
04:10	64.2	64.2	64.2	84	59.3	1	3	90	0.00	29.937 
04:15	64.0	64.0	64.0	84	59.1	0	2	90	0.00	29.942 
04:20	64.0	64.0	64.0	84	59.1	0	2	90	0.00	29.942 
04:25	64.0	64.0	64.0	84	59.1	0	4	90	0.00	29.942 
04:30	64.0	64.0	64.0	84	59.1	1	5	90	0.00	29.948 
04:35	64.0	64.0	64.0	84	59.1	0	2	90	0.00	29.948 
04:40	63.9	63.9	63.9	83	58.6	0	3	90	0.00	29.948 
04:45	63.9	63.9	63.9	83	58.6	0	2	90	0.00	29.948 
04:50	63.9	63.9	63.9	83	58.6	0	2	90	0.00	29.948 
04:55	63.7	63.7	63.7	83	58.4	0	2	90	0.00	29.948 
05:00	63.7	63.7	63.7	83	58.4	0	1	90	0.00	29.945 
05:05	63.7	63.7	63.7	83	58.4	0	2	90	0.00	29.945 
05:10	63.5	63.5	63.5	83	58.2	0	2	90	0.00	29.945 
05:15	63.5	63.5	63.5	83	58.2	0	1	90	0.00	29.942 
05:20	63.4	63.4	63.4	83	58.1	0	1	90	0.00	29.942 
05:25	63.4	63.4	63.4	84	58.5	0	2	90	0.00	29.942 
05:30	63.4	63.4	63.4	84	58.5	0	3	90	0.00	29.938 
05:35	63.4	63.4	63.4	84	58.5	0	1	90	0.00	29.938 
05:40	63.2	63.2	63.2	84	58.3	0	0	---	0.00	29.938 
05:45	63.2	63.2	63.2	84	58.3	0	1	90	0.00	29.937 
05:50	63.2	63.2	63.2	84	58.3	0	0	---	0.00	29.937 
05:55	63.2	63.2	63.2	84	58.3	0	1	90	0.00	29.937 
06:00	63.2	63.2	63.2	84	58.3	0	0	---	0.00	29.939 
06:05	63.2	63.2	63.2	84	58.3	0	1	90	0.00	29.939 
06:10	63.1	63.1	63.1	84	58.2	0	3	90	0.00	29.939 
06:15	63.1	63.1	63.1	84	58.2	0	1	90	0.00	29.942 
06:20	63.1	63.1	63.1	85	58.5	0	0	---	0.00	29.942 
06:25	62.9	62.9	62.9	85	58.3	0	1	90	0.00	29.942 
06:30	62.9	62.9	62.9	85	58.3	0	1	90	0.00	29.941 
06:35	62.9	62.9	62.9	85	58.3	0	1	90	0.00	29.941 
06:40	62.7	62.7	62.7	85	58.1	0	1	90	0.00	29.941 
06:45	62.7	62.7	62.7	85	58.1	0	3	90	0.00	29.942 
06:50	62.7	62.7	62.7	84	57.8	0	2	90	0.00	29.942 
06:55	62.6	62.6	62.6	84	57.7	0	2	90	0.00	29.942 
07:00	62.6	62.6	62.6	84	57.7	1	4	90	0.00	29.945 
07:05	62.6	62.6	62.6	84	57.7	0	2	112	0.00	29.945 
07:10	62.7	62.7	62.7	84	57.8	1	5	112	0.00	29.945 
07:15	62.7	62.7	62.7	84	57.8	0	2	112	0.00	29.953 
07:20	62.7	62.7	62.7	84	57.8	1	4	112	0.00	29.953 
07:25	62.6	62.6	62.6	84	57.7	1	3	68	0.00	29.953 
07:30	62.6	62.6	62.6	84	57.7	0	2	68	0.00	29.955 
07:35	62.6	62.6	62.6	84	57.7	0	2	68	0.00	29.955 
07:40	62.4	62.4	62.4	84	57.5	1	3	68	0.00	29.955 
07:45	62.4	62.4	62.4	84	57.5	0	2	68	0.00	29.956 
07:50	62.6	62.6	62.6	85	58.0	0	2	68	0.00	29.956 
07:55	62.6	62.6	62.6	84	57.7	0	3	68	0.00	29.956 
08:00	62.7	62.7	62.7	84	57.8	1	3	68	0.00	29.957 
08:05	63.1	63.1	63.1	83	57.8	1	4	68	0.00	29.957 
08:10	63.4	63.4	63.4	82	57.8	1	3	90	0.00	29.957 
08:15	63.7	63.7	63.7	81	57.8	2	5	90	0.00	29.958 
08:20	64.0	64.0	64.0	81	58.0	1	3	90	0.00	29.958 
08:25	64.0	64.0	64.0	80	57.7	2	4	90	0.00	29.958 
08:30	64.0	64.0	64.0	80	57.7	1	4	90	0.00	29.958 
08:35	64.0	64.0	64.0	80	57.7	2	5	45	0.00	29.958 
08:40	63.9	63.9	63.9	80	57.6	1	4	68	0.00	29.958 
08:45	63.9	63.9	63.9	81	57.9	1	3	90	0.00	29.958 
08:50	63.9	63.9	63.9	81	57.9	1	4	90	0.00	29.958 
08:55	63.9	63.9	63.9	81	57.9	2	4	90	0.00	29.958 
09:00	64.0	64.0	64.0	81	58.0	1	4	90	0.00	29.956 
09:05	64.0	64.0	64.0	81	58.0	2	5	45	0.00	29.956 
09:10	64.2	64.2	64.2	81	58.2	1	6	90	0.00	29.956 
09:15	64.2	64.2	64.2	80	57.9	2	6	45	0.00	29.958 
09:20	64.3	64.3	64.3	80	58.0	2	6	90	0.00	29.958 
09:25	64.5	64.5	64.5	80	58.2	1	5	90	0.00	29.958 
09:30	64.7	64.7	64.7	80	58.4	1	4	90	0.00	29.962 
09:35	64.8	64.8	64.8	80	58.5	2	6	90	0.00	29.962 
09:40	64.8	64.8	64.8	79	58.1	2	6	90	0.00	29.962 
09:45	65.0	65.0	65.0	79	58.3	2	4	90	0.00	29.963 
09:50	65.2	65.2	65.2	78	58.2	2	5	90	0.00	29.963 
09:55	65.3	65.3	65.3	78	58.3	3	7	68	0.00	29.963 
10:00	65.5	65.5	65.5	77	58.1	2	7	90	0.00	29.958 
10:05	65.6	65.6	65.6	77	58.2	2	5	68	0.00	29.958 
10:10	66.0	66.0	66.0	77	58.6	1	4	68	0.00	29.958 
10:15	66.1	66.1	66.1	76	58.3	2	9	68	0.00	29.958 
10:20	66.3	66.3	66.3	75	58.1	3	7	90	0.00	29.958 
10:25	66.6	66.6	66.6	75	58.4	2	5	90	0.00	29.958 
10:30	66.9	66.9	66.9	74	58.3	1	4	90	0.00	29.956 
10:35	66.9	66.9	66.9	74	58.3	3	7	90	0.00	29.956 
10:40	67.1	67.1	67.1	74	58.5	2	5	112	0.00	29.956 
10:45	67.1	67.1	67.1	74	58.5	3	8	68	0.00	29.956 
10:50	67.3	67.3	67.3	73	58.3	2	6	68	0.00	29.956 
10:55	67.4	67.4	67.4	73	58.4	2	5	68	0.00	29.956 
11:00	67.6	67.6	67.6	73	58.6	2	6	90	0.00	29.946 
11:05	68.1	68.1	68.1	73	59.1	2	5	68	0.00	29.946 
11:10	68.1	68.1	68.1	72	58.7	2	6	68	0.00	29.946 
11:15	68.4	68.4	68.4	71	58.6	2	6	90	0.00	29.943 
11:20	68.6	68.6	68.6	71	58.8	2	7	68	0.00	29.943 
11:25	68.8	68.8	68.8	70	58.6	3	10	90	0.00	29.943 
11:30	69.3	69.3	69.3	69	58.7	3	5	90	0.00	29.947 
11:35	69.6	69.6	69.6	68	58.6	3	6	90	0.00	29.947 
11:40	69.8	69.8	69.8	67	58.3	3	7	68	0.00	29.947 
11:45	69.9	69.9	69.9	68	58.8	2	9	90	0.00	29.944 
11:50	70.1	70.1	70.1	69	59.4	2	7	90	0.00	29.944 
11:55	70.4	70.4	70.4	67	58.9	3	8	90	0.00	29.944 
12:00	70.4	70.4	70.4	68	59.3	2	5	68	0.00	29.959 
12:05	70.9	70.9	70.9	68	59.8	2	5	68	0.00	29.959 
12:10	71.5	71.5	71.5	67	60.0	2	7	68	0.00	29.959 
12:15	72.1	72.1	72.1	65	59.7	3	9	90	0.00	29.954 
12:20	72.7	72.7	72.7	63	59.4	3	9	90	0.00	29.954 
12:25	73.0	73.0	73.0	62	59.2	2	5	90	0.00	29.954 
12:30	73.0	73.0	73.0	62	59.2	3	7	90	0.00	29.955 
12:35	73.0	73.0	73.0	60	58.3	3	10	90	0.00	29.955 
12:40	73.2	73.2	73.2	62	59.4	2	6	90	0.00	29.955 
12:45	73.3	73.3	73.3	59	58.1	3	7	90	0.00	29.948 
12:50	73.5	73.5	73.5	59	58.3	3	10	90	0.00	29.948 
12:55	73.7	73.7	73.7	58	58.0	2	6	90	0.00	29.948 
13:00	73.9	73.9	73.9	58	58.2	2	6	90	0.00	29.932 
13:05	74.4	74.4	74.4	54	56.7	2	10	135	0.00	29.932 
13:10	74.6	74.6	74.6	54	56.8	2	5	90	0.00	29.932 
13:15	74.2	74.2	74.2	54	56.5	3	9	90	0.00	29.921 
13:20	73.9	73.9	73.9	56	57.2	3	8	90	0.00	29.921 
13:25	73.9	73.9	73.9	56	57.2	3	10	90	0.00	29.921 
13:30	73.5	73.5	73.5	52	54.8	5	11	90	0.00	29.922 
13:35	73.3	73.3	73.3	51	54.1	3	11	112	0.00	29.922 
13:40	73.7	73.7	73.7	52	55.0	3	10	112	0.00	29.922 
13:45	74.0	74.0	74.0	52	55.2	4	11	90	0.00	29.925 
13:50	73.9	73.9	73.9	51	54.6	3	7	90	0.00	29.925 
13:55	73.5	73.5	73.5	51	54.2	2	5	90	0.00	29.925 
14:00	73.3	73.3	73.3	52	54.6	2	9	90	0.00	29.928 
14:05	73.5	73.5	73.5	51	54.2	2	6	112	0.00	29.928 
14:10	73.9	73.9	73.9	52	55.1	2	7	68	0.00	29.928 
14:15	74.4	74.4	74.4	51	55.1	1	6	90	0.00	29.929 
14:20	74.4	74.4	74.4	50	54.5	3	7	90	0.00	29.929 
14:25	74.4	74.4	74.4	53	56.1	2	5	90	0.00	29.929 
14:30	74.4	74.4	74.4	51	55.1	2	7	90	0.00	29.930 
14:35	74.6	74.6	74.6	50	54.7	2	6	68	0.00	29.930 
14:40	74.9	74.9	74.9	52	56.1	2	6	90	0.00	29.930 
14:45	74.9	74.9	74.9	50	55.0	3	7	90	0.00	29.926 
14:50	75.1	75.1	77.7	49	54.6	3	7	112	0.00	29.926 
14:55	75.3	75.3	77.7	49	54.8	3	10	90	0.00	29.926 
15:00	75.8	75.8	78.0	51	56.4	1	5	90	0.00	29.925 
15:05	76.0	76.0	78.1	49	55.4	2	5	90	0.00	29.925 
15:10	75.8	75.8	78.0	50	55.8	2	7	90	0.00	29.925 
15:15	75.4	75.4	77.8	50	55.4	2	7	68	0.00	29.926 
15:20	75.6	75.6	77.9	50	55.6	1	4	90	0.00	29.926 
15:25	75.6	75.6	77.9	50	55.6	1	10	90	0.00	29.926 
15:30	75.3	75.3	77.7	49	54.8	2	9	90	0.00	29.925 
15:35	75.1	75.1	77.7	50	55.2	1	4	90	0.00	29.925 
15:40	75.3	75.3	77.7	50	55.4	2	6	90	0.00	29.925 
15:45	75.1	75.1	77.7	49	54.6	3	10	68	0.00	29.918 
15:50	75.3	75.3	77.7	53	57.0	1	4	90	0.00	29.918 
15:55	75.6	75.6	77.9	52	56.7	2	5	90	0.00	29.918 
16:00	75.8	75.8	78.0	51	56.4	2	5	90	0.00	29.910 
16:05	75.6	75.6	77.9	50	55.6	2	5	112	0.00	29.910 
16:10	75.8	75.8	78.0	51	56.4	1	4	90	0.00	29.910 
16:15	76.0	76.0	78.1	51	56.5	2	5	90	0.00	29.908 
16:20	76.1	76.1	78.1	51	56.6	1	4	68	0.00	29.908 
16:25	76.5	76.5	78.3	51	57.0	2	5	68	0.00	29.908 
16:30	76.5	76.5	78.3	50	56.5	3	5	68	0.00	29.903 
16:35	76.5	76.5	78.4	52	57.5	3	6	90	0.00	29.903 
16:40	76.8	76.8	78.5	52	57.8	1	3	90	0.00	29.903 
16:45	76.7	76.7	78.4	51	57.2	1	4	90	0.00	29.905 
16:50	76.3	76.3	78.2	51	56.8	2	7	90	0.00	29.905 
16:55	76.0	76.0	78.1	52	57.1	1	3	112	0.00	29.905 
17:00	76.1	76.1	78.1	53	57.7	1	4	68	0.00	29.898 
17:05	76.3	76.3	78.3	54	58.4	2	5	68	0.00	29.898 
17:10	76.7	76.7	78.5	53	58.3	2	5	90	0.00	29.898 
17:15	76.7	76.7	78.5	53	58.3	1	6	90	0.00	29.892 
17:20	76.3	76.3	78.3	54	58.4	2	7	90	0.00	29.892 
17:25	76.0	76.0	78.1	54	58.1	2	6	68	0.00	29.892 
17:30	76.0	76.0	78.1	56	59.2	1	4	90	0.00	29.891 
17:35	75.6	75.6	77.8	55	58.3	1	6	90	0.00	29.891 
17:40	75.4	75.4	77.7	55	58.1	2	9	112	0.00	29.891 
17:45	75.4	75.4	77.8	54	57.6	2	4	90	0.00	29.886 
17:50	76.0	76.0	78.1	53	57.6	2	4	90	0.00	29.886 
17:55	76.1	76.1	78.1	51	56.6	2	5	90	0.00	29.886 
18:00	75.8	75.8	78.0	52	56.9	1	4	112	0.00	29.889 
18:05	75.6	75.6	77.9	50	55.6	2	7	112	0.00	29.889 
18:10	75.6	75.6	77.9	50	55.6	2	6	90	0.00	29.889 
18:15	75.8	75.8	78.0	50	55.8	2	9	90	0.00	29.893 
18:20	75.8	75.8	78.0	50	55.8	2	5	90	0.00	29.893 
18:25	75.8	75.8	78.0	49	55.3	1	5	90	0.00	29.893 
18:30	75.6	75.6	77.9	50	55.6	1	3	68	0.00	29.887 
18:35	75.4	75.4	77.8	49	54.9	4	10	90	0.00	29.887 
18:40	75.3	75.3	77.7	50	55.4	2	7	90	0.00	29.887 
18:45	75.1	75.1	77.7	51	55.7	2	6	90	0.00	29.879 
18:50	74.9	74.9	74.9	51	55.5	3	6	68	0.00	29.879 
18:55	74.9	74.9	74.9	51	55.5	3	8	68	0.00	29.879 
19:00	74.7	74.7	74.7	51	55.4	2	11	68	0.00	29.876 
19:05	74.6	74.6	74.6	51	55.3	3	7	90	0.00	29.876 
19:10	74.6	74.6	74.6	52	55.8	2	7	68	0.00	29.876 
19:15	74.4	74.4	74.4	52	55.6	2	5	68	0.00	29.873 
19:20	74.2	74.2	74.2	52	55.4	2	7	68	0.00	29.873 
19:25	73.9	73.9	73.9	53	55.7	2	7	90	0.00	29.873 
19:30	73.7	73.7	73.7	53	55.5	3	7	90	0.00	29.878 
19:35	73.5	73.5	73.5	53	55.3	2	5	68	0.00	29.878 
19:40	73.3	73.3	73.3	54	55.6	3	6	90	0.00	29.878 
19:45	73.2	73.2	73.2	55	56.0	2	7	112	0.00	29.880 
19:50	73.0	73.0	73.0	55	55.9	1	5	112	0.00	29.880 
19:55	73.0	73.0	73.0	55	55.9	1	4	90	0.00	29.880 
20:00	72.8	72.8	72.8	56	56.2	1	3	90	0.00	29.883 
20:05	72.7	72.7	72.7	56	56.1	1	3	90	0.00	29.883 
20:10	72.5	72.5	72.5	56	55.9	1	4	90	0.00	29.883 
20:15	72.1	72.1	72.1	56	55.5	1	4	90	0.00	29.887 
20:20	72.0	72.0	72.0	57	55.9	1	5	90	0.00	29.887 
20:25	71.6	71.6	71.6	57	55.5	1	4	90	0.00	29.887 
20:30	71.3	71.3	71.3	57	55.3	1	4	90	0.00	29.882 
20:35	71.1	71.1	71.1	57	55.1	2	5	90	0.00	29.882 
20:40	70.8	70.8	70.8	58	55.3	1	4	90	0.00	29.882 
20:45	70.4	70.4	70.4	58	54.9	1	4	90	0.00	29.884 
20:50	70.1	70.1	70.1	58	54.6	2	5	68	0.00	29.884 
20:55	69.8	69.8	69.8	59	54.8	1	3	68	0.00	29.884 
21:00	69.4	69.4	69.4	58	54.0	1	5	68	0.00	29.885 
21:05	69.3	69.3	69.3	59	54.3	1	2	68	0.00	29.885 
21:10	68.9	68.9	68.9	59	54.0	1	3	68	0.00	29.885 
21:15	68.6	68.6	68.6	60	54.1	0	2	68	0.00	29.889 
21:20	68.4	68.4	68.4	60	54.0	0	2	68	0.00	29.889 
21:25	68.1	68.1	68.1	60	53.7	1	3	68	0.00	29.889 
21:30	67.9	67.9	67.9	60	53.5	1	3	68	0.00	29.897 
21:35	67.8	67.8	67.8	60	53.4	0	2	68	0.00	29.897 
21:40	67.6	67.6	67.6	60	53.2	0	2	68	0.00	29.897 
21:45	67.3	67.3	67.3	60	52.9	0	3	68	0.00	29.901 
21:50	67.1	67.1	67.1	62	53.6	0	1	68	0.00	29.901 
21:55	66.8	66.8	66.8	62	53.4	0	1	68	0.00	29.901 
22:00	66.4	66.4	66.4	62	53.0	0	0	---	0.00	29.907 
22:05	66.3	66.3	66.3	63	53.3	0	0	---	0.00	29.907 
22:10	66.0	66.0	66.0	63	53.0	0	0	---	0.00	29.907 
22:15	65.6	65.6	65.6	64	53.1	0	0	---	0.00	29.908 
22:20	65.5	65.5	65.5	64	53.0	0	0	---	0.00	29.908 
22:25	65.2	65.2	65.2	64	52.7	0	0	---	0.00	29.908 
22:30	65.0	65.0	65.0	64	52.5	0	0	---	0.00	29.914 
22:35	64.7	64.7	64.7	65	52.7	0	0	---	0.00	29.914 
22:40	64.5	64.5	64.5	66	52.9	0	0	---	0.00	29.914 
22:45	64.3	64.3	64.3	65	52.3	0	0	---	0.00	29.916 
22:50	64.0	64.0	64.0	66	52.4	0	0	---	0.00	29.916 
22:55	63.9	63.9	63.9	67	52.7	0	0	---	0.00	29.916 
23:00	63.7	63.7	63.7	67	52.5	0	0	---	0.00	29.918 
23:05	63.4	63.4	63.4	67	52.2	0	0	---	0.00	29.918 
23:10	63.2	63.2	63.2	68	52.5	0	0	---	0.00	29.918 
23:15	63.1	63.1	63.1	68	52.4	0	0	---	0.00	29.916 
23:20	62.9	62.9	62.9	70	53.0	0	0	---	0.00	29.916 
23:25	62.6	62.6	62.6	71	53.1	0	0	---	0.00	29.916 
23:30	62.4	62.4	62.4	71	52.9	0	0	---	0.00	29.914 
23:35	62.4	62.4	62.4	72	53.2	0	0	---	0.00	29.914 
23:40	62.3	62.3	62.3	72	53.2	0	0	---	0.00	29.914 
23:45	62.1	62.1	62.1	72	53.0	0	0	---	0.00	29.913 
23:50	62.0	62.0	62.0	73	53.2	0	0	---	0.00	29.913 
23:55	62.0	62.0	62.0	73	53.2	0	0	---	0.00	29.913 

CoCoRaHS
IN-AL-39
A2 Web Hosting
Creative Commons License
GoDaddy
search engine by freefind advanced

loaded 2018-11-17 23:27:42 • last modified 2010-11-18 10:43:29
Privacy PolicyDisclaimer
• wx.awcolley.com is powered by PmWiki v.2002016 •
• all content (unless otherwise noted) © 2018 A W Colley